Time;durP1;ratioP1;P1;durP2;ratioP2;P2;SDS_P1;SDS_P2;PMS_P1;PMS_P2;Temp;Humidity;BMP_temperature;BMP_pressure;BME280_temperature;BME280_humidity;BME280_pressure;Samples;Min_cycle;Max_cycle;Signal;HPM_P1;HPM_P2
2022/06/26 00:01:54;;;;;;;4.13;2.20;;;21.20;66.30;;;;;;5017033;28;21005;-77
2022/06/26 00:04:22;;;;;;;6.70;2.30;;;21.20;66.40;;;;;;5010413;28;20494;-77
2022/06/26 00:06:50;;;;;;;4.83;2.37;;;21.20;66.50;;;;;;5014227;28;20468;-77
2022/06/26 00:09:18;;;;;;;4.40;2.17;;;21.10;66.60;;;;;;5011655;28;20460;-77
2022/06/26 00:11:47;;;;;;;4.97;2.33;;;21.20;66.60;;;;;;5014109;28;20470;-77
2022/06/26 00:14:15;;;;;;;5.40;2.00;;;21.20;66.60;;;;;;5013338;28;20491;-77
2022/06/26 00:16:43;;;;;;;8.00;2.70;;;21.20;66.60;;;;;;5014446;28;20869;-77
2022/06/26 00:19:11;;;;;;;5.30;2.30;;;21.10;66.60;;;;;;5014191;28;20522;-77
2022/06/26 00:21:39;;;;;;;5.70;2.43;;;21.10;66.60;;;;;;5013721;28;20462;-77
2022/06/26 00:24:07;;;;;;;4.87;2.33;;;21.00;66.70;;;;;;5016134;28;20483;-77
2022/06/26 00:26:35;;;;;;;5.30;2.50;;;21.00;66.60;;;;;;5017197;28;20469;-77
2022/06/26 00:29:04;;;;;;;4.27;2.23;;;20.90;66.60;;;;;;5011424;28;20456;-77
2022/06/26 00:31:32;;;;;;;5.17;2.30;;;20.90;66.80;;;;;;5014131;28;20511;-77
2022/06/26 00:34:00;;;;;;;5.27;2.20;;;20.80;66.90;;;;;;5012357;28;20518;-77
2022/06/26 00:36:29;;;;;;;5.50;3.00;;;20.80;66.90;;;;;;5014478;28;20479;-77
2022/06/26 00:38:56;;;;;;;4.93;2.33;;;20.80;67.00;;;;;;5016451;28;20463;-77
2022/06/26 00:41:25;;;;;;;6.20;2.80;;;20.70;67.10;;;;;;5013256;28;20446;-77
2022/06/26 00:43:52;;;;;;;4.90;2.30;;;20.80;67.10;;;;;;5023702;28;20486;-77
2022/06/26 00:46:24;;;;;;;4.53;2.70;;;20.80;67.20;;;;;;5001783;28;20483;-77
2022/06/26 00:48:53;;;;;;;4.43;2.37;;;20.80;67.30;;;;;;5019686;28;21024;-77
2022/06/26 00:51:21;;;;;;;4.90;2.17;;;20.80;67.20;;;;;;5014184;28;20465;-77
2022/06/26 00:53:50;;;;;;;4.73;2.73;;;20.80;67.20;;;;;;5000681;28;20536;-77
2022/06/26 00:56:18;;;;;;;4.53;2.20;;;20.80;67.20;;;;;;5005275;28;21006;-77
2022/06/26 00:58:46;;;;;;;5.10;2.40;;;20.80;67.10;;;;;;5017440;28;20466;-77
2022/06/26 01:01:14;;;;;;;4.80;2.20;;;20.70;67.00;;;;;;5017371;28;20478;-77
2022/06/26 01:03:43;;;;;;;4.47;2.20;;;20.70;67.10;;;;;;5020526;28;20496;-78
2022/06/26 01:06:11;;;;;;;10.20;2.90;;;20.60;67.10;;;;;;5020588;28;20447;-78
2022/06/26 01:08:39;;;;;;;4.30;2.13;;;20.60;67.10;;;;;;5014314;28;20470;-77
2022/06/26 01:11:18;;;;;;;5.50;2.50;;;20.50;67.10;;;;;;5016713;28;20571;-78
2022/06/26 01:13:46;;;;;;;4.73;1.90;;;20.50;67.20;;;;;;5020577;28;21127;-78
2022/06/26 01:16:16;;;;;;;5.40;2.40;;;20.40;67.10;;;;;;5015484;28;20570;-77
2022/06/26 01:18:48;;;;;;;4.57;2.50;;;20.40;67.10;;;;;;5008146;28;20460;-78
2022/06/26 01:21:17;;;;;;;6.00;3.10;;;20.30;67.30;;;;;;5017056;28;20489;-78
2022/06/26 01:23:49;;;;;;;4.63;2.40;;;20.30;67.50;;;;;;5017396;28;20524;-77
2022/06/26 01:26:18;;;;;;;4.77;2.60;;;20.30;67.50;;;;;;5013044;28;20514;-77
2022/06/26 01:28:47;;;;;;;5.17;2.53;;;20.30;67.50;;;;;;5018859;28;20983;-77
2022/06/26 01:31:15;;;;;;;4.90;2.70;;;20.30;67.50;;;;;;5015276;28;20487;-77
2022/06/26 01:33:43;;;;;;;4.40;2.13;;;20.30;67.50;;;;;;4999155;28;20599;-77
2022/06/26 01:36:11;;;;;;;6.80;2.60;;;20.20;67.50;;;;;;5016768;28;20501;-77
2022/06/26 01:38:41;;;;;;;5.10;2.73;;;20.20;67.60;;;;;;5001472;28;20474;-77
2022/06/26 01:41:11;;;;;;;4.70;2.47;;;20.20;67.70;;;;;;5015482;28;21026;-77
2022/06/26 01:43:40;;;;;;;4.80;2.80;;;20.10;67.80;;;;;;5012400;28;20487;-77
2022/06/26 01:46:08;;;;;;;5.17;2.60;;;20.10;67.90;;;;;;5016386;28;20474;-77
2022/06/26 01:48:39;;;;;;;6.43;2.87;;;20.10;68.00;;;;;;5018079;28;20470;-83
2022/06/26 01:51:09;;;;;;;4.27;2.07;;;20.10;68.10;;;;;;5020964;28;20470;-83
2022/06/26 01:53:39;;;;;;;4.30;2.53;;;20.10;68.20;;;;;;5000283;28;20592;-84
2022/06/26 01:56:07;;;;;;;6.20;2.70;;;20.10;68.20;;;;;;5022838;28;20490;-83
2022/06/26 01:58:40;;;;;;;6.80;2.53;;;20.20;68.10;;;;;;5010344;28;20884;-84
2022/06/26 02:01:09;;;;;;;6.80;2.80;;;20.20;68.10;;;;;;5028077;28;20987;-83
2022/06/26 02:03:38;;;;;;;4.50;2.60;;;20.20;68.10;;;;;;5017660;28;20494;-83
2022/06/26 02:06:08;;;;;;;4.37;1.93;;;20.10;68.10;;;;;;5005562;28;21032;-83
2022/06/26 02:08:54;;;;;;;4.43;2.43;;;20.10;68.10;;;;;;5024485;28;21232;-84
2022/06/26 02:14:10;;;;;;;5.90;2.70;;;20.00;67.90;;;;;;5011292;28;20484;-84
2022/06/26 02:16:45;;;;;;;6.20;2.97;;;20.00;67.90;;;;;;5019058;28;20482;-83
2022/06/26 02:19:15;;;;;;;8.60;2.80;;;19.90;68.00;;;;;;5024169;28;21215;-84
2022/06/26 02:21:43;;;;;;;8.63;2.93;;;19.90;68.30;;;;;;5019348;28;20470;-83
2022/06/26 02:24:11;;;;;;;6.40;2.80;;;19.90;68.50;;;;;;5018238;28;21112;-83
2022/06/26 02:26:39;;;;;;;5.70;3.20;;;19.90;68.60;;;;;;5006642;28;20461;-83
2022/06/26 02:29:07;;;;;;;8.50;3.37;;;19.90;68.80;;;;;;5024879;28;20974;-83
2022/06/26 02:31:36;;;;;;;13.20;3.80;;;19.90;68.90;;;;;;5019761;28;20480;-83
2022/06/26 02:34:04;;;;;;;4.67;2.93;;;19.80;69.10;;;;;;5023494;28;20478;-83
2022/06/26 02:36:32;;;;;;;5.70;3.30;;;19.80;69.40;;;;;;5010855;28;20482;-83
2022/06/26 02:39:00;;;;;;;5.33;3.23;;;19.90;69.40;;;;;;5025198;28;20947;-83
2022/06/26 02:41:27;;;;;;;7.97;3.53;;;19.90;69.50;;;;;;5022147;28;20863;-83
2022/06/26 02:43:57;;;;;;;7.00;3.47;;;19.80;69.60;;;;;;5006326;28;20564;-82
2022/06/26 02:46:24;;;;;;;9.13;3.43;;;19.80;69.70;;;;;;5020698;28;20503;-83
2022/06/26 02:48:55;;;;;;;7.60;3.57;;;19.80;69.70;;;;;;5018300;28;20450;-84
2022/06/26 02:51:23;;;;;;;7.17;4.00;;;19.80;69.90;;;;;;5020635;28;20463;-84
2022/06/26 02:53:52;;;;;;;4.90;3.40;;;19.80;70.10;;;;;;5021396;28;20486;-83
2022/06/26 02:56:21;;;;;;;8.97;3.23;;;19.80;70.20;;;;;;5005961;28;20480;-84
2022/06/26 02:58:48;;;;;;;8.37;3.73;;;19.80;70.30;;;;;;5030584;28;20843;-84
2022/06/26 03:01:17;;;;;;;5.43;3.40;;;19.80;70.40;;;;;;5024115;28;20570;-82
2022/06/26 03:03:45;;;;;;;6.70;3.90;;;19.90;70.60;;;;;;5006727;28;20587;-81
2022/06/26 03:06:15;;;;;;;5.60;3.40;;;19.90;70.60;;;;;;5015582;28;20456;-81
2022/06/26 03:08:43;;;;;;;6.03;3.40;;;19.90;70.60;;;;;;5007665;28;20466;-82
2022/06/26 03:11:12;;;;;;;8.30;4.07;;;19.90;70.70;;;;;;5004215;28;20466;-82
2022/06/26 03:13:40;;;;;;;6.70;3.43;;;19.90;70.80;;;;;;5016525;28;20486;-81
2022/06/26 03:16:08;;;;;;;8.03;3.83;;;19.90;70.90;;;;;;5008775;28;21076;-82
2022/06/26 03:18:36;;;;;;;6.80;4.00;;;19.90;70.80;;;;;;5007196;28;20462;-81
2022/06/26 03:21:05;;;;;;;6.90;3.70;;;19.80;70.80;;;;;;4996490;28;20569;-81
2022/06/26 03:26:19;;;;;;;12.47;3.97;;;19.70;71.20;;;;;;5008556;28;20451;-82
2022/06/26 03:28:47;;;;;;;6.07;3.53;;;19.70;71.40;;;;;;5017807;28;20516;-81
2022/06/26 03:31:15;;;;;;;6.53;3.40;;;19.70;71.60;;;;;;5002279;28;22428;-82
2022/06/26 03:33:45;;;;;;;7.40;4.10;;;19.70;71.50;;;;;;5019265;28;20512;-83
2022/06/26 03:36:14;;;;;;;6.20;3.93;;;19.80;71.60;;;;;;5002129;28;20523;-84
2022/06/26 03:38:43;;;;;;;6.10;3.80;;;19.80;71.70;;;;;;5008105;28;20461;-84
2022/06/26 03:41:12;;;;;;;7.10;3.80;;;19.80;71.70;;;;;;5004993;28;20467;-83
2022/06/26 03:43:40;;;;;;;9.90;3.40;;;19.80;71.70;;;;;;5005600;28;21036;-83
2022/06/26 03:46:08;;;;;;;7.90;4.03;;;19.80;71.90;;;;;;5004445;28;20559;-83
2022/06/26 03:48:36;;;;;;;6.00;3.90;;;19.90;72.10;;;;;;5022166;28;20464;-83
2022/06/26 03:51:06;;;;;;;7.30;3.90;;;19.90;72.20;;;;;;5014203;28;21027;-83
2022/06/26 03:53:35;;;;;;;6.70;4.10;;;20.00;72.10;;;;;;5006961;28;20498;-84
2022/06/26 03:56:05;;;;;;;8.77;3.50;;;20.00;72.10;;;;;;5006689;28;20465;-83
2022/06/26 03:58:33;;;;;;;5.70;3.90;;;20.00;72.20;;;;;;5007572;28;20586;-81
2022/06/26 04:01:01;;;;;;;5.37;3.30;;;20.00;72.30;;;;;;5023631;28;20608;-83
2022/06/26 04:03:29;;;;;;;7.20;3.40;;;20.00;72.30;;;;;;5014776;28;20487;-82
2022/06/26 04:05:59;;;;;;;7.33;3.77;;;20.00;72.50;;;;;;5013790;28;20459;-82
2022/06/26 04:08:27;;;;;;;6.90;3.90;;;20.10;72.60;;;;;;5020325;28;20469;-83
2022/06/26 04:11:08;;;;;;;12.43;3.63;;;20.20;72.80;;;;;;5011895;28;20465;-82
2022/06/26 04:13:37;;;;;;;5.37;3.23;;;20.30;72.90;;;;;;4997492;28;22400;-82
2022/06/26 04:16:05;;;;;;;7.10;3.50;;;20.40;72.70;;;;;;5014659;28;20494;-83
2022/06/26 04:18:37;;;;;;;7.00;3.13;;;20.50;72.60;;;;;;5004051;28;20482;-82
2022/06/26 04:21:08;;;;;;;5.83;3.47;;;20.60;72.50;;;;;;5013061;28;20532;-82
2022/06/26 04:23:37;;;;;;;5.77;2.97;;;20.70;72.60;;;;;;5003471;28;20489;-83
2022/06/26 04:26:11;;;;;;;6.77;2.80;;;20.80;72.70;;;;;;5008269;28;20468;-83
2022/06/26 04:28:39;;;;;;;4.90;2.80;;;21.00;72.60;;;;;;5022600;28;20450;-83
2022/06/26 04:31:07;;;;;;;6.70;2.90;;;21.20;72.50;;;;;;5010482;28;20484;-82
2022/06/26 04:33:37;;;;;;;4.70;3.03;;;21.30;72.10;;;;;;5007492;28;20588;-82
2022/06/26 04:36:08;;;;;;;6.20;3.10;;;21.40;72.10;;;;;;5003560;28;20542;-82
2022/06/26 04:38:38;;;;;;;5.63;2.63;;;21.60;72.10;;;;;;5022353;28;20486;-84
2022/06/26 04:43:49;;;;;;;5.70;3.47;;;21.80;71.60;;;;;;5018574;28;20851;-82
2022/06/26 04:46:17;;;;;;;5.73;3.20;;;21.90;71.50;;;;;;5015497;28;22024;-82
2022/06/26 04:48:46;;;;;;;5.73;3.40;;;21.90;71.30;;;;;;5023403;28;20459;-82
2022/06/26 04:51:17;;;;;;;5.87;3.20;;;21.90;71.30;;;;;;5019035;28;21007;-83
2022/06/26 04:53:46;;;;;;;6.03;3.00;;;21.90;71.30;;;;;;5019109;28;20521;-83
2022/06/26 04:56:14;;;;;;;6.10;2.80;;;21.90;71.30;;;;;;5007792;28;20534;-84
2022/06/26 04:58:54;;;;;;;6.73;3.13;;;21.90;71.30;;;;;;5021668;28;20494;-83
2022/06/26 05:01:25;;;;;;;6.00;3.00;;;21.90;71.30;;;;;;5005840;28;20507;-83
2022/06/26 05:04:19;;;;;;;4.87;2.73;;;21.80;71.30;;;;;;5020961;28;20540;-83
2022/06/26 05:06:54;;;;;;;7.27;3.00;;;21.80;71.30;;;;;;5021390;28;20542;-83
2022/06/26 05:09:27;;;;;;;4.80;3.17;;;21.80;71.40;;;;;;5024922;28;20459;-82
2022/06/26 05:11:55;;;;;;;5.10;2.80;;;21.80;71.50;;;;;;5026072;28;20456;-81
2022/06/26 05:14:24;;;;;;;5.43;3.00;;;21.80;71.50;;;;;;5022403;28;20492;-81
2022/06/26 05:16:58;;;;;;;4.60;3.00;;;21.80;71.50;;;;;;5021553;28;20490;-82
2022/06/26 05:19:31;;;;;;;4.67;2.60;;;21.80;71.50;;;;;;5023010;28;20503;-82
2022/06/26 05:22:08;;;;;;;5.93;3.67;;;21.80;71.60;;;;;;5013384;28;20537;-82
2022/06/26 05:24:40;;;;;;;4.43;2.80;;;21.90;72.10;;;;;;5022033;28;20491;-84
2022/06/26 05:27:09;;;;;;;5.30;3.30;;;22.10;72.30;;;;;;5001225;28;20458;-84
2022/06/26 05:29:44;;;;;;;5.40;3.17;;;22.30;72.20;;;;;;5020253;28;20538;-84
2022/06/26 05:32:12;;;;;;;5.50;3.13;;;22.60;72.00;;;;;;5020664;28;20515;-83
2022/06/26 05:34:40;;;;;;;8.50;3.00;;;22.80;71.90;;;;;;5008896;28;20533;-83
2022/06/26 05:37:08;;;;;;;4.60;2.80;;;23.10;71.90;;;;;;5005636;28;20498;-83
2022/06/26 05:39:38;;;;;;;8.70;2.87;;;23.40;71.90;;;;;;5005485;28;20454;-84
2022/06/26 05:42:06;;;;;;;5.53;3.10;;;23.80;72.20;;;;;;5005015;28;20464;-84
2022/06/26 05:44:38;;;;;;;5.63;3.17;;;24.40;71.70;;;;;;5007166;28;20505;-83
2022/06/26 05:47:07;;;;;;;6.50;2.90;;;25.50;69.90;;;;;;5024528;28;20480;-83
2022/06/26 05:49:38;;;;;;;4.63;2.83;;;26.60;67.30;;;;;;5030274;28;20505;-83
2022/06/26 05:52:32;;;;;;;5.47;2.50;;;27.80;64.70;;;;;;4990054;28;20471;-83
2022/06/26 05:55:19;;;;;;;6.47;3.00;;;28.90;62.80;;;;;;5022531;28;20527;-83
2022/06/26 05:58:09;;;;;;;4.50;2.60;;;29.90;61.40;;;;;;5006741;28;20529;-82
2022/06/26 06:00:56;;;;;;;5.23;2.43;;;30.90;59.80;;;;;;5023458;28;20484;-83
2022/06/26 06:03:25;;;;;;;4.60;2.37;;;31.50;58.70;;;;;;5009246;28;20557;-82
2022/06/26 06:05:57;;;;;;;5.33;2.27;;;32.10;57.30;;;;;;5006355;28;20873;-82
2022/06/26 06:08:25;;;;;;;4.20;2.20;;;32.60;56.30;;;;;;5024515;28;20452;-84
2022/06/26 06:10:53;;;;;;;4.20;2.20;;;32.80;55.70;;;;;;5003056;28;20462;-83
2022/06/26 06:13:21;;;;;;;5.10;2.73;;;32.60;55.20;;;;;;5000326;28;20497;-84
2022/06/26 06:15:49;;;;;;;6.53;3.27;;;32.20;55.40;;;;;;5016221;28;20470;-84
2022/06/26 06:18:17;;;;;;;4.80;2.40;;;31.80;55.60;;;;;;5004672;28;20820;-84
2022/06/26 06:20:46;;;;;;;6.20;2.10;;;31.20;55.70;;;;;;5019620;28;20471;-84
2022/06/26 06:23:35;;;;;;;4.80;2.60;;;30.70;56.20;;;;;;5001879;28;20568;-85
2022/06/26 06:26:03;;;;;;;5.47;2.50;;;30.30;56.60;;;;;;5005520;28;20463;-79
2022/06/26 06:28:31;;;;;;;6.47;2.73;;;29.90;56.70;;;;;;5018429;28;20459;-79
2022/06/26 06:30:59;;;;;;;4.77;2.40;;;29.40;57.00;;;;;;4997522;28;21064;-77
2022/06/26 06:33:29;;;;;;;4.57;2.57;;;29.00;57.30;;;;;;5003502;28;20581;-77
2022/06/26 06:35:59;;;;;;;4.40;2.00;;;28.60;57.60;;;;;;5017669;28;20551;-76
2022/06/26 06:38:30;;;;;;;4.50;2.50;;;28.20;58.10;;;;;;5003969;28;20491;-76
2022/06/26 06:41:04;;;;;;;4.40;2.40;;;27.90;58.30;;;;;;5016829;28;21280;-77
2022/06/26 06:43:41;;;;;;;8.30;2.57;;;27.50;58.70;;;;;;5015264;28;21259;-76
2022/06/26 06:46:38;;;;;;;4.97;2.60;;;27.10;59.10;;;;;;4980719;28;20547;-79
2022/06/26 06:49:14;;;;;;;10.20;3.27;;;26.70;59.60;;;;;;5020357;28;20465;-78
2022/06/26 06:51:54;;;;;;;4.53;2.33;;;26.50;60.20;;;;;;5000363;28;20474;-78
2022/06/26 06:54:24;;;;;;;4.10;2.00;;;26.30;60.60;;;;;;5021644;28;20504;-78
2022/06/26 06:56:52;;;;;;;6.37;3.07;;;26.20;61.00;;;;;;5022192;28;20466;-77
2022/06/26 06:59:20;;;;;;;7.50;2.50;;;26.10;61.20;;;;;;5000894;28;20477;-77
2022/06/26 07:01:48;;;;;;;5.20;2.70;;;25.90;61.20;;;;;;5015479;28;20485;-77
2022/06/26 07:04:16;;;;;;;4.80;2.63;;;25.70;61.50;;;;;;4998985;28;20566;-76
2022/06/26 07:06:45;;;;;;;4.70;2.20;;;25.60;61.70;;;;;;5015567;28;20588;-76
2022/06/26 07:09:14;;;;;;;5.60;2.60;;;25.50;62.00;;;;;;5014211;28;20466;-76
2022/06/26 07:11:46;;;;;;;4.83;2.40;;;25.50;62.10;;;;;;5013807;28;20470;-76
2022/06/26 07:14:17;;;;;;;4.40;2.30;;;25.40;62.30;;;;;;5015756;28;20494;-76
2022/06/26 07:16:47;;;;;;;4.20;2.40;;;25.40;62.40;;;;;;5017789;28;20544;-76
2022/06/26 07:19:18;;;;;;;4.63;2.30;;;25.40;62.60;;;;;;5015377;28;20516;-76
2022/06/26 07:21:46;;;;;;;7.00;2.50;;;25.30;62.60;;;;;;5017248;28;21073;-76
2022/06/26 07:24:15;;;;;;;4.83;2.33;;;25.30;62.60;;;;;;5002297;28;20497;-76
2022/06/26 07:27:03;;;;;;;4.70;2.17;;;25.20;62.60;;;;;;5017306;28;20472;-76
2022/06/26 07:29:37;;;;;;;5.03;2.10;;;25.20;62.80;;;;;;5001594;28;20679;-76
2022/06/26 07:32:13;;;;;;;4.07;1.97;;;25.20;62.80;;;;;;4998629;28;20519;-76
2022/06/26 07:34:41;;;;;;;4.47;1.93;;;25.20;62.90;;;;;;5001724;28;20527;-76
2022/06/26 07:37:09;;;;;;;4.30;2.40;;;25.10;63.00;;;;;;5006207;28;20510;-75
2022/06/26 07:39:38;;;;;;;4.30;1.93;;;25.10;63.20;;;;;;5018649;28;20501;-76
2022/06/26 07:42:07;;;;;;;4.13;2.00;;;25.10;63.30;;;;;;5014393;28;20504;-76
2022/06/26 07:44:37;;;;;;;4.57;2.33;;;25.20;63.40;;;;;;5013068;28;20488;-76
2022/06/26 07:47:05;;;;;;;4.63;2.50;;;25.20;63.40;;;;;;5003376;28;20495;-75
2022/06/26 07:49:59;;;;;;;4.80;2.80;;;25.20;63.40;;;;;;5010173;28;20476;-77
2022/06/26 07:52:27;;;;;;;8.23;2.80;;;25.20;63.50;;;;;;5015694;28;21043;-77
2022/06/26 07:54:56;;;;;;;4.33;2.43;;;25.30;63.50;;;;;;4999442;28;20477;-77
2022/06/26 07:57:24;;;;;;;4.13;2.00;;;25.30;63.50;;;;;;5021256;28;20475;-77
2022/06/26 07:59:52;;;;;;;5.50;2.63;;;25.30;63.40;;;;;;5022589;28;20487;-77
2022/06/26 08:02:20;;;;;;;4.40;2.40;;;25.30;63.40;;;;;;5002809;28;20484;-77
2022/06/26 08:04:48;;;;;;;5.13;2.60;;;25.30;63.40;;;;;;5019482;28;20487;-77
2022/06/26 08:07:16;;;;;;;5.07;2.57;;;25.30;63.50;;;;;;5014713;28;20459;-78
2022/06/26 08:09:47;;;;;;;4.90;2.60;;;25.30;63.60;;;;;;5023632;28;20467;-77
2022/06/26 08:12:16;;;;;;;4.60;2.17;;;25.30;63.60;;;;;;5018462;28;20576;-77
2022/06/26 08:14:44;;;;;;;4.50;2.20;;;25.30;63.70;;;;;;5011704;28;20492;-77
2022/06/26 08:17:12;;;;;;;5.10;2.30;;;25.40;63.80;;;;;;5016445;28;20498;-77
2022/06/26 08:19:40;;;;;;;4.27;2.30;;;25.40;63.80;;;;;;5022603;28;20480;-77
2022/06/26 08:22:08;;;;;;;4.30;2.13;;;25.40;63.80;;;;;;5014630;28;20476;-76
2022/06/26 08:24:38;;;;;;;6.90;2.67;;;25.40;63.70;;;;;;5006352;28;20499;-77
2022/06/26 08:27:06;;;;;;;4.20;2.20;;;25.40;63.70;;;;;;5016900;28;20449;-77
2022/06/26 08:29:35;;;;;;;4.60;2.30;;;25.50;63.70;;;;;;5023554;28;20462;-77
2022/06/26 08:32:04;;;;;;;4.77;2.40;;;25.50;63.70;;;;;;5019093;28;20498;-77
2022/06/26 08:34:32;;;;;;;5.80;1.90;;;25.50;63.60;;;;;;5019402;28;20475;-77
2022/06/26 08:37:00;;;;;;;4.67;2.53;;;25.50;63.60;;;;;;5006003;28;20455;-77
2022/06/26 08:39:30;;;;;;;4.40;2.37;;;25.50;63.60;;;;;;5015660;28;20483;-78
2022/06/26 08:41:58;;;;;;;4.50;2.30;;;25.50;63.60;;;;;;5019836;28;20873;-77
2022/06/26 08:44:26;;;;;;;4.40;2.60;;;25.50;63.70;;;;;;5018159;28;20476;-77
2022/06/26 08:46:56;;;;;;;8.00;2.60;;;25.50;63.70;;;;;;5009381;28;20557;-79
2022/06/26 08:49:24;;;;;;;4.90;2.63;;;25.50;63.70;;;;;;5018735;28;20489;-77
2022/06/26 08:52:00;;;;;;;4.80;2.40;;;25.50;63.60;;;;;;5005465;28;20994;-76
2022/06/26 08:54:29;;;;;;;5.63;2.23;;;25.50;63.70;;;;;;5019392;28;20511;-77
2022/06/26 08:56:57;;;;;;;5.80;2.80;;;25.50;63.60;;;;;;5014069;28;20475;-78
2022/06/26 08:59:27;;;;;;;4.20;2.40;;;25.50;63.60;;;;;;5016818;28;20506;-77
2022/06/26 09:01:56;;;;;;;4.20;2.00;;;25.50;63.60;;;;;;5020609;28;20474;-77
2022/06/26 09:04:24;;;;;;;4.53;2.33;;;25.50;63.50;;;;;;5021647;28;20487;-77
2022/06/26 09:06:52;;;;;;;5.40;2.67;;;25.50;63.40;;;;;;5016653;28;20564;-78
2022/06/26 09:09:23;;;;;;;4.40;2.50;;;25.60;63.40;;;;;;5019136;28;20537;-78
2022/06/26 09:11:53;;;;;;;4.40;2.60;;;25.60;63.50;;;;;;5024330;28;21361;-77
2022/06/26 09:14:22;;;;;;;4.60;2.27;;;25.60;63.50;;;;;;5007928;28;20519;-78
2022/06/26 09:16:52;;;;;;;7.03;2.57;;;25.70;63.40;;;;;;5003735;28;21080;-77
2022/06/26 09:19:24;;;;;;;4.50;2.30;;;25.70;63.40;;;;;;5019050;28;20476;-77
2022/06/26 09:21:53;;;;;;;4.50;2.20;;;25.70;63.60;;;;;;5019945;28;20485;-77
2022/06/26 09:24:22;;;;;;;6.03;2.40;;;25.70;63.50;;;;;;5016593;28;21005;-77
2022/06/26 09:27:02;;;;;;;4.03;2.23;;;25.70;63.60;;;;;;5018154;28;20453;-78
2022/06/26 09:29:30;;;;;;;5.40;2.30;;;25.80;63.50;;;;;;5015139;28;20465;-77
2022/06/26 09:32:07;;;;;;;4.37;2.33;;;25.70;63.50;;;;;;5018016;28;20461;-77
2022/06/26 09:34:37;;;;;;;4.40;2.33;;;25.80;63.50;;;;;;5027677;28;20477;-76
2022/06/26 09:37:06;;;;;;;4.17;2.17;;;25.80;63.60;;;;;;5014066;28;20499;-76
2022/06/26 09:39:35;;;;;;;6.23;2.40;;;25.80;63.50;;;;;;5018177;28;20476;-77
2022/06/26 09:42:17;;;;;;;5.23;1.90;;;25.80;63.40;;;;;;5023784;28;20944;-77
2022/06/26 09:44:46;;;;;;;4.50;2.07;;;25.80;63.30;;;;;;5021204;28;20516;-77
2022/06/26 09:47:26;;;;;;;5.20;2.60;;;25.90;63.30;;;;;;5020211;28;20480;-76
2022/06/26 09:49:57;;;;;;;4.47;2.40;;;25.80;63.20;;;;;;5018271;28;20453;-76
2022/06/26 09:52:27;;;;;;;4.33;2.20;;;25.80;63.20;;;;;;5023626;28;20452;-76
2022/06/26 09:54:56;;;;;;;4.77;2.20;;;25.80;63.30;;;;;;5025386;28;20483;-77
2022/06/26 09:57:26;;;;;;;4.80;2.27;;;25.90;63.30;;;;;;5022053;28;20516;-76
2022/06/26 09:59:55;;;;;;;4.40;1.93;;;25.90;63.20;;;;;;5018983;28;20480;-76
2022/06/26 10:08:02;;;;;;;4.70;2.47;;;26.00;62.80;;;;;;5005717;28;20457;-76
2022/06/26 10:10:33;;;;;;;4.67;2.43;;;26.00;62.60;;;;;;5008279;28;20515;-76
2022/06/26 10:13:05;;;;;;;3.80;1.60;;;26.00;62.60;;;;;;5022599;28;20460;-76
2022/06/26 10:15:36;;;;;;;4.60;2.20;;;26.00;62.40;;;;;;5023696;28;21283;-76
2022/06/26 10:18:28;;;;;;;4.87;2.43;;;26.00;62.40;;;;;;5022727;28;21043;-76
2022/06/26 10:20:59;;;;;;;4.07;2.00;;;26.10;62.30;;;;;;5015695;28;20472;-76
2022/06/26 10:23:34;;;;;;;4.63;2.13;;;26.10;62.30;;;;;;5014978;28;20482;-76
2022/06/26 10:26:12;;;;;;;4.23;2.10;;;26.20;62.20;;;;;;5004551;28;20468;-76
2022/06/26 10:28:57;;;;;;;5.60;2.50;;;26.30;62.00;;;;;;5020535;28;20468;-76
2022/06/26 10:31:25;;;;;;;4.67;2.30;;;26.30;61.90;;;;;;4999743;28;20475;-76
2022/06/26 10:33:53;;;;;;;4.93;2.53;;;26.30;61.80;;;;;;5013802;28;20503;-76
2022/06/26 10:36:23;;;;;;;4.83;2.40;;;26.40;61.60;;;;;;5017714;28;20530;-76
2022/06/26 10:38:51;;;;;;;4.23;2.13;;;26.40;61.30;;;;;;5020101;28;20486;-76
2022/06/26 10:44:08;;;;;;;4.53;2.20;;;26.40;61.20;;;;;;5021350;28;21002;-76
2022/06/26 10:46:37;;;;;;;4.03;1.93;;;26.40;61.10;;;;;;5018981;28;21253;-76
2022/06/26 10:49:07;;;;;;;4.33;1.80;;;26.40;61.00;;;;;;5002624;28;20469;-76
2022/06/26 10:51:40;;;;;;;5.33;2.10;;;26.40;61.00;;;;;;5021678;28;20468;-76
2022/06/26 10:54:19;;;;;;;5.83;2.30;;;26.40;61.00;;;;;;5016464;28;20530;-76
2022/06/26 10:56:47;;;;;;;4.50;2.00;;;26.40;61.10;;;;;;5021891;28;21168;-76
2022/06/26 10:59:21;;;;;;;4.97;2.40;;;26.40;61.10;;;;;;5003443;28;20458;-76
2022/06/26 11:01:50;;;;;;;4.40;2.17;;;26.50;61.10;;;;;;5023738;28;20484;-76
2022/06/26 11:04:18;;;;;;;4.40;2.13;;;26.50;61.10;;;;;;5022870;28;20488;-76
2022/06/26 11:06:48;;;;;;;4.20;2.07;;;26.60;61.20;;;;;;5026304;28;21083;-75
2022/06/26 11:09:17;;;;;;;3.80;1.93;;;26.70;61.00;;;;;;5025358;28;20476;-76
2022/06/26 11:11:51;;;;;;;4.83;1.93;;;26.70;60.70;;;;;;5026209;28;20469;-76
2022/06/26 11:14:19;;;;;;;4.00;2.00;;;26.70;60.60;;;;;;5024846;28;21009;-76
2022/06/26 11:16:47;;;;;;;4.90;2.10;;;26.70;60.70;;;;;;5022007;28;20466;-76
2022/06/26 11:19:27;;;;;;;4.07;1.83;;;26.70;60.60;;;;;;5022726;28;20469;-76
2022/06/26 11:22:06;;;;;;;4.80;1.90;;;26.80;60.60;;;;;;5026644;28;20481;-76
2022/06/26 11:24:36;;;;;;;3.87;1.97;;;26.80;60.50;;;;;;5019825;28;21054;-76
2022/06/26 11:27:04;;;;;;;4.20;2.03;;;26.90;60.40;;;;;;5023821;28;20468;-76
2022/06/26 11:29:33;;;;;;;5.20;2.17;;;27.00;60.20;;;;;;5021074;28;20460;-76
2022/06/26 11:32:01;;;;;;;4.17;1.90;;;27.00;60.00;;;;;;5022463;28;20554;-76
2022/06/26 11:34:29;;;;;;;4.20;2.10;;;27.10;59.90;;;;;;5016826;28;20580;-76
2022/06/26 11:36:59;;;;;;;7.83;2.40;;;27.10;59.90;;;;;;5020065;28;20469;-76
2022/06/26 11:39:39;;;;;;;4.30;1.90;;;27.20;59.90;;;;;;5014807;28;21638;-75
2022/06/26 11:42:15;;;;;;;4.13;1.87;;;27.20;59.70;;;;;;5015887;28;20474;-75
2022/06/26 11:57:15;;;;;;;4.53;1.73;;;27.20;59.60;;;;;;5014201;28;20421;-75
2022/06/26 11:59:44;;;;;;;8.00;2.00;;;27.20;59.50;;;;;;5017794;28;20481;-75
2022/06/26 12:02:19;;;;;;;4.90;2.13;;;27.20;59.30;;;;;;5015567;28;21124;-75
2022/06/26 12:04:55;;;;;;;4.10;2.17;;;27.20;59.10;;;;;;5014730;28;20474;-75
2022/06/26 12:07:23;;;;;;;4.50;2.07;;;27.20;59.00;;;;;;5014662;28;20513;-75
2022/06/26 12:09:51;;;;;;;5.10;2.23;;;27.20;59.00;;;;;;5013575;28;20451;-75
2022/06/26 12:12:20;;;;;;;4.13;2.00;;;27.20;59.10;;;;;;5015337;28;20463;-75
2022/06/26 12:14:50;;;;;;;6.90;2.13;;;27.20;59.00;;;;;;5016797;28;20492;-77
2022/06/26 12:17:23;;;;;;;4.13;1.93;;;27.20;59.00;;;;;;5016578;28;21064;-75
2022/06/26 12:19:51;;;;;;;4.30;2.30;;;27.30;59.00;;;;;;5016629;28;20470;-75
2022/06/26 12:22:27;;;;;;;5.20;2.30;;;27.40;59.00;;;;;;5016281;28;20474;-76
2022/06/26 12:24:56;;;;;;;4.33;2.27;;;27.50;59.10;;;;;;5013790;28;20485;-75
2022/06/26 12:27:37;;;;;;;4.63;2.20;;;27.70;59.20;;;;;;5017560;28;20470;-76
2022/06/26 12:30:15;;;;;;;4.03;2.00;;;28.00;59.00;;;;;;5020415;28;20599;-76
2022/06/26 12:32:55;;;;;;;4.20;1.80;;;28.20;58.90;;;;;;5018042;28;20576;-76
2022/06/26 12:35:23;;;;;;;4.30;1.90;;;28.50;58.60;;;;;;5018010;28;21035;-76
2022/06/26 12:37:51;;;;;;;3.90;1.90;;;28.60;58.30;;;;;;5017256;28;20462;-78
2022/06/26 12:40:19;;;;;;;4.07;1.63;;;28.80;58.00;;;;;;5015018;28;20467;-79
2022/06/26 12:42:49;;;;;;;4.00;1.90;;;28.80;57.50;;;;;;5013933;28;20483;-78
2022/06/26 12:45:17;;;;;;;5.23;2.20;;;28.90;57.20;;;;;;5016920;28;21319;-78
2022/06/26 12:47:45;;;;;;;4.07;1.83;;;28.90;57.10;;;;;;5018499;28;20471;-78
2022/06/26 12:50:14;;;;;;;4.50;2.03;;;28.90;57.00;;;;;;5015447;28;20464;-78
2022/06/26 12:52:42;;;;;;;4.10;2.07;;;28.90;56.80;;;;;;5008877;28;20515;-78
2022/06/26 12:55:11;;;;;;;4.10;1.80;;;28.90;56.40;;;;;;5016613;28;20461;-78
2022/06/26 12:57:39;;;;;;;4.63;2.07;;;28.90;56.50;;;;;;5016495;28;20468;-78
2022/06/26 13:00:10;;;;;;;4.10;2.10;;;28.90;56.60;;;;;;5016426;28;21028;-79
2022/06/26 13:02:37;;;;;;;4.57;2.10;;;28.90;56.50;;;;;;5015839;28;20479;-78
2022/06/26 13:12:50;;;;;;;3.80;1.70;;;29.00;56.50;;;;;;5015115;28;20448;-78
2022/06/26 13:15:19;;;;;;;3.73;1.80;;;28.90;56.70;;;;;;5015936;28;20462;-78
2022/06/26 13:17:47;;;;;;;3.80;1.77;;;28.90;56.60;;;;;;5017204;28;20953;-79
2022/06/26 13:20:15;;;;;;;4.50;2.00;;;28.90;56.50;;;;;;5013291;28;20473;-78
2022/06/26 13:22:43;;;;;;;6.20;2.00;;;28.80;56.50;;;;;;5018577;28;20498;-78
2022/06/26 13:25:11;;;;;;;4.13;2.00;;;28.80;56.50;;;;;;4998161;28;20497;-78
2022/06/26 13:27:39;;;;;;;3.80;1.80;;;28.80;56.50;;;;;;5015536;28;20464;-78
2022/06/26 13:30:08;;;;;;;5.03;1.80;;;28.80;56.50;;;;;;5000046;28;20457;-79
2022/06/26 13:32:38;;;;;;;4.83;2.00;;;28.90;56.50;;;;;;5013691;28;20520;-78
2022/06/26 13:35:07;;;;;;;7.63;2.33;;;28.90;56.40;;;;;;5014673;28;20493;-75
2022/06/26 13:37:35;;;;;;;4.80;1.87;;;28.90;56.30;;;;;;5013413;28;20477;-75
2022/06/26 13:40:04;;;;;;;4.00;1.90;;;28.80;56.40;;;;;;5012183;28;20475;-76